Airfield :
LOGIN :

Register | Disclaimer

   EN    FR    IT 

 










Legend :    VFR   Marginal VFR   IFR   Intensive IFR   Very Intensive IFR
Visi :
Ceiling :
>= 8 km
>= 3000ft
5 to 8 km
1000 to 3000 ft
1500m to 5 km
500 to 1000 ft
800 to 1500m
200 to 500 ft
< 800m
< 200 ft
Symbols :   Thunderstorms  Fog  Heavy snow  Heavy precipitations  Wind > 20 kt
SIGMETs :     Misc.  Thunderstorms  Icing  Turbulence  Mountain Waves  Volcanic Ashes







- Airport Elevation : 1115 ft
- IATA code : GRZ


LOWG - Graz

CURRENT METAR :
  • 251150Z VRB03KT 9999 FEW028 BKN280 25/18 Q1021 NOSIG

EXPIRED METARs :
  • 251120Z VRB01KT 9999 FEW027 FEW045TCU BKN280 24/17 Q1021 NOSIG
  • 251050Z VRB02KT 9999 FEW025 FEW045TCU SCT070 BKN280 24/18 Q1021 NOSIG
  • 251020Z VRB02KT 9999 FEW028 FEW045TCU SCT048 BKN280 23/17 Q1022 NOSIG
  • 250950Z VRB02KT 9999 FEW028 FEW045TCU BKN048 22/17 Q1022 NOSIG
  • 250920Z VRB02KT 9999 FEW030 BKN045 FEW045TCU 21/17 Q1022 NOSIG

TAF TAF LOWG
Valid from the 25 at 12:00 until the 26 at 12:00 UTC


251115Z 2512/2612 VRB02KT 9999 FEW030 SCT050 BKN250 TX25/2512Z TN18/2602Z
TEMPO 2512/2603 15008KT -TSRA FEW050 FEW050CB BKN090
PROB40
TEMPO 2513/2524 VRB15G25KT 4000 TSRA SCT030CB BKN040
BECMG 2523/2602 FEW005 SCT011 BKN020
BECMG 2608/2610 14007KT FEW020 FEW030CB SCT040
PROB40
TEMPO 2610/2612 VRB10KT 4000 TSRA SCT030CB BKN040
No reported NOTAMs for that airfield.



MET'MAP, your aeronautical weather chart ! - Copyright ORBIFLY December 2007 - Disclaimer

ORBIFLY MET'MAP TEAM :

Programming & Development : Alexandra Zaïnal
Concept & Development : Baudouin d'Aumeries
Co-Development & Prog : Marc-Olivier Méhu
Technical & hardware support : Manuel Goepfert

Contact : metmap@orbifly.com




SOURCES & CREDITS :

   NOAA